sensor_id;sensor_type;location;lat;lon;timestamp;temperature;humidity
22416;DHT22;12204;50.600;4.608;2022-07-09T00:00:36;25.00;68.00
22416;DHT22;12204;50.600;4.608;2022-07-09T00:05:39;25.00;67.30
22416;DHT22;12204;50.600;4.608;2022-07-09T00:10:43;25.00;67.30
22416;DHT22;12204;50.600;4.608;2022-07-09T00:15:48;25.00;67.40
22416;DHT22;12204;50.600;4.608;2022-07-09T00:20:53;25.00;67.50
22416;DHT22;12204;50.600;4.608;2022-07-09T00:25:57;25.00;67.40
22416;DHT22;12204;50.600;4.608;2022-07-09T00:31:02;25.00;67.70
22416;DHT22;12204;50.600;4.608;2022-07-09T00:36:07;25.00;67.70
22416;DHT22;12204;50.600;4.608;2022-07-09T00:41:10;25.00;67.60
22416;DHT22;12204;50.600;4.608;2022-07-09T00:46:15;25.00;67.60
22416;DHT22;12204;50.600;4.608;2022-07-09T00:51:20;25.00;67.60
22416;DHT22;12204;50.600;4.608;2022-07-09T00:56:24;25.00;67.50
22416;DHT22;12204;50.600;4.608;2022-07-09T01:01:29;25.00;67.70
22416;DHT22;12204;50.600;4.608;2022-07-09T01:06:35;24.90;67.90
22416;DHT22;12204;50.600;4.608;2022-07-09T01:11:39;25.00;68.10
22416;DHT22;12204;50.600;4.608;2022-07-09T01:16:44;25.00;67.80
22416;DHT22;12204;50.600;4.608;2022-07-09T01:21:49;25.00;67.70
22416;DHT22;12204;50.600;4.608;2022-07-09T01:26:53;25.00;67.70
22416;DHT22;12204;50.600;4.608;2022-07-09T01:31:57;25.00;67.70
22416;DHT22;12204;50.600;4.608;2022-07-09T01:37:02;25.00;67.60
22416;DHT22;12204;50.600;4.608;2022-07-09T01:42:06;25.00;67.70
22416;DHT22;12204;50.600;4.608;2022-07-09T01:47:10;25.00;67.70
22416;DHT22;12204;50.600;4.608;2022-07-09T01:52:17;25.00;67.70
22416;DHT22;12204;50.600;4.608;2022-07-09T01:57:21;25.00;67.80
22416;DHT22;12204;50.600;4.608;2022-07-09T02:02:25;24.90;67.80
22416;DHT22;12204;50.600;4.608;2022-07-09T02:07:30;25.00;68.20
22416;DHT22;12204;50.600;4.608;2022-07-09T02:12:34;25.00;68.10
22416;DHT22;12204;50.600;4.608;2022-07-09T02:17:37;25.00;68.10
22416;DHT22;12204;50.600;4.608;2022-07-09T02:22:42;25.00;68.20
22416;DHT22;12204;50.600;4.608;2022-07-09T02:27:46;25.00;68.20
22416;DHT22;12204;50.600;4.608;2022-07-09T02:32:50;25.00;67.80
22416;DHT22;12204;50.600;4.608;2022-07-09T02:37:55;25.00;68.00
22416;DHT22;12204;50.600;4.608;2022-07-09T02:42:58;25.00;68.10
22416;DHT22;12204;50.600;4.608;2022-07-09T02:48:02;25.00;68.10
22416;DHT22;12204;50.600;4.608;2022-07-09T02:53:07;25.00;68.50
22416;DHT22;12204;50.600;4.608;2022-07-09T02:58:11;24.90;68.40
22416;DHT22;12204;50.600;4.608;2022-07-09T03:03:15;25.00;68.20
22416;DHT22;12204;50.600;4.608;2022-07-09T03:08:20;25.00;68.20
22416;DHT22;12204;50.600;4.608;2022-07-09T03:13:24;24.90;68.20
22416;DHT22;12204;50.600;4.608;2022-07-09T03:18:28;24.90;68.30
22416;DHT22;12204;50.600;4.608;2022-07-09T03:23:33;25.00;68.10
22416;DHT22;12204;50.600;4.608;2022-07-09T03:28:36;25.00;68.00
22416;DHT22;12204;50.600;4.608;2022-07-09T03:33:40;25.00;68.00
22416;DHT22;12204;50.600;4.608;2022-07-09T03:38:45;25.00;68.10
22416;DHT22;12204;50.600;4.608;2022-07-09T03:43:49;25.00;68.20
22416;DHT22;12204;50.600;4.608;2022-07-09T03:48:52;25.00;68.10
22416;DHT22;12204;50.600;4.608;2022-07-09T03:53:57;24.90;68.20
22416;DHT22;12204;50.600;4.608;2022-07-09T03:59:01;24.90;68.30
22416;DHT22;12204;50.600;4.608;2022-07-09T04:04:05;25.00;68.50
22416;DHT22;12204;50.600;4.608;2022-07-09T04:09:10;25.00;68.80
22416;DHT22;12204;50.600;4.608;2022-07-09T04:14:13;25.00;68.10
22416;DHT22;12204;50.600;4.608;2022-07-09T04:19:17;25.00;68.20
22416;DHT22;12204;50.600;4.608;2022-07-09T04:24:22;25.00;68.10
22416;DHT22;12204;50.600;4.608;2022-07-09T04:29:25;25.00;68.30
22416;DHT22;12204;50.600;4.608;2022-07-09T04:34:29;25.00;68.20
22416;DHT22;12204;50.600;4.608;2022-07-09T04:39:34;25.00;68.30
22416;DHT22;12204;50.600;4.608;2022-07-09T04:44:38;25.00;68.20
22416;DHT22;12204;50.600;4.608;2022-07-09T04:49:44;25.00;68.00
22416;DHT22;12204;50.600;4.608;2022-07-09T04:54:49;25.00;68.10
22416;DHT22;12204;50.600;4.608;2022-07-09T05:05:44;25.00;68.50
22416;DHT22;12204;50.600;4.608;2022-07-09T05:10:53;25.00;68.50
22416;DHT22;12204;50.600;4.608;2022-07-09T05:15:56;25.00;68.00
22416;DHT22;12204;50.600;4.608;2022-07-09T05:21:00;25.00;68.60
22416;DHT22;12204;50.600;4.608;2022-07-09T05:26:10;25.00;68.60
22416;DHT22;12204;50.600;4.608;2022-07-09T05:31:14;25.00;68.60
22416;DHT22;12204;50.600;4.608;2022-07-09T05:36:35;25.00;68.50
22416;DHT22;12204;50.600;4.608;2022-07-09T05:41:42;25.00;68.40
22416;DHT22;12204;50.600;4.608;2022-07-09T05:46:45;25.00;68.40
22416;DHT22;12204;50.600;4.608;2022-07-09T05:51:49;25.00;69.00
22416;DHT22;12204;50.600;4.608;2022-07-09T05:56:54;25.00;69.10
22416;DHT22;12204;50.600;4.608;2022-07-09T06:01:58;25.00;67.60
22416;DHT22;12204;50.600;4.608;2022-07-09T06:07:04;24.90;66.80
22416;DHT22;12204;50.600;4.608;2022-07-09T06:12:10;24.80;66.20
22416;DHT22;12204;50.600;4.608;2022-07-09T06:17:13;24.80;66.40
22416;DHT22;12204;50.600;4.608;2022-07-09T06:22:17;24.80;66.10
22416;DHT22;12204;50.600;4.608;2022-07-09T06:27:22;24.80;65.80
22416;DHT22;12204;50.600;4.608;2022-07-09T06:32:26;24.70;65.50
22416;DHT22;12204;50.600;4.608;2022-07-09T06:37:30;24.70;65.80
22416;DHT22;12204;50.600;4.608;2022-07-09T06:42:35;24.70;66.00
22416;DHT22;12204;50.600;4.608;2022-07-09T06:47:51;24.70;66.10
22416;DHT22;12204;50.600;4.608;2022-07-09T06:52:56;24.70;65.80
22416;DHT22;12204;50.600;4.608;2022-07-09T06:58:01;24.70;65.70
22416;DHT22;12204;50.600;4.608;2022-07-09T07:03:04;24.60;65.10
22416;DHT22;12204;50.600;4.608;2022-07-09T07:08:08;24.60;65.10
22416;DHT22;12204;50.600;4.608;2022-07-09T07:13:13;24.60;64.80
22416;DHT22;12204;50.600;4.608;2022-07-09T07:18:17;24.60;64.70
22416;DHT22;12204;50.600;4.608;2022-07-09T07:23:21;24.50;64.70
22416;DHT22;12204;50.600;4.608;2022-07-09T07:28:26;24.50;64.90
22416;DHT22;12204;50.600;4.608;2022-07-09T07:33:30;24.60;64.90
22416;DHT22;12204;50.600;4.608;2022-07-09T07:38:34;24.60;64.90
22416;DHT22;12204;50.600;4.608;2022-07-09T07:43:40;24.60;64.00
22416;DHT22;12204;50.600;4.608;2022-07-09T07:48:43;24.50;64.10
22416;DHT22;12204;50.600;4.608;2022-07-09T07:53:47;24.50;63.70
22416;DHT22;12204;50.600;4.608;2022-07-09T07:58:52;24.50;64.00
22416;DHT22;12204;50.600;4.608;2022-07-09T08:03:56;24.60;64.20
22416;DHT22;12204;50.600;4.608;2022-07-09T08:08:59;24.60;64.10
22416;DHT22;12204;50.600;4.608;2022-07-09T08:14:05;24.60;64.30
22416;DHT22;12204;50.600;4.608;2022-07-09T08:19:10;24.60;64.00
22416;DHT22;12204;50.600;4.608;2022-07-09T08:24:18;24.60;63.80
22416;DHT22;12204;50.600;4.608;2022-07-09T08:29:22;24.60;64.00
22416;DHT22;12204;50.600;4.608;2022-07-09T08:34:26;24.60;64.20
22416;DHT22;12204;50.600;4.608;2022-07-09T08:39:30;24.60;64.50
22416;DHT22;12204;50.600;4.608;2022-07-09T08:44:38;24.70;64.70
22416;DHT22;12204;50.600;4.608;2022-07-09T08:49:47;24.70;64.50
22416;DHT22;12204;50.600;4.608;2022-07-09T08:54:53;24.70;64.20
22416;DHT22;12204;50.600;4.608;2022-07-09T09:00:02;24.60;64.10
22416;DHT22;12204;50.600;4.608;2022-07-09T09:05:11;24.60;63.70
22416;DHT22;12204;50.600;4.608;2022-07-09T09:10:21;24.60;63.50
22416;DHT22;12204;50.600;4.608;2022-07-09T09:15:27;24.60;63.30
22416;DHT22;12204;50.600;4.608;2022-07-09T09:20:31;24.60;63.60
22416;DHT22;12204;50.600;4.608;2022-07-09T09:25:36;24.70;63.60
22416;DHT22;12204;50.600;4.608;2022-07-09T09:30:43;24.60;63.90
22416;DHT22;12204;50.600;4.608;2022-07-09T09:35:48;24.70;63.50
22416;DHT22;12204;50.600;4.608;2022-07-09T09:40:53;24.70;63.70
22416;DHT22;12204;50.600;4.608;2022-07-09T09:45:59;24.70;63.30
22416;DHT22;12204;50.600;4.608;2022-07-09T09:51:05;24.70;63.50
22416;DHT22;12204;50.600;4.608;2022-07-09T09:56:10;24.70;63.90
22416;DHT22;12204;50.600;4.608;2022-07-09T10:01:16;24.70;64.00
22416;DHT22;12204;50.600;4.608;2022-07-09T10:06:20;24.70;63.60
22416;DHT22;12204;50.600;4.608;2022-07-09T10:11:24;24.70;63.70
22416;DHT22;12204;50.600;4.608;2022-07-09T10:16:36;24.70;63.10
22416;DHT22;12204;50.600;4.608;2022-07-09T10:21:42;24.70;63.30
22416;DHT22;12204;50.600;4.608;2022-07-09T10:27:03;24.70;63.00
22416;DHT22;12204;50.600;4.608;2022-07-09T10:32:24;24.70;63.40
22416;DHT22;12204;50.600;4.608;2022-07-09T10:37:34;24.70;63.10
22416;DHT22;12204;50.600;4.608;2022-07-09T10:42:39;24.70;63.30
22416;DHT22;12204;50.600;4.608;2022-07-09T10:47:50;24.70;63.10
22416;DHT22;12204;50.600;4.608;2022-07-09T10:52:57;24.70;63.20
22416;DHT22;12204;50.600;4.608;2022-07-09T10:58:03;24.70;63.20
22416;DHT22;12204;50.600;4.608;2022-07-09T11:03:11;24.70;62.90
22416;DHT22;12204;50.600;4.608;2022-07-09T11:08:14;24.70;63.20
22416;DHT22;12204;50.600;4.608;2022-07-09T11:13:22;24.70;63.20
22416;DHT22;12204;50.600;4.608;2022-07-09T11:18:29;24.70;63.10
22416;DHT22;12204;50.600;4.608;2022-07-09T11:23:33;24.80;63.30
22416;DHT22;12204;50.600;4.608;2022-07-09T11:28:37;24.80;62.90
22416;DHT22;12204;50.600;4.608;2022-07-09T11:33:43;24.80;62.90
22416;DHT22;12204;50.600;4.608;2022-07-09T11:39:04;24.80;63.30
22416;DHT22;12204;50.600;4.608;2022-07-09T11:44:08;24.80;63.60
22416;DHT22;12204;50.600;4.608;2022-07-09T11:49:15;24.80;64.00
22416;DHT22;12204;50.600;4.608;2022-07-09T11:54:26;24.80;63.70
22416;DHT22;12204;50.600;4.608;2022-07-09T11:59:30;24.80;63.80
22416;DHT22;12204;50.600;4.608;2022-07-09T12:04:36;24.80;63.90
22416;DHT22;12204;50.600;4.608;2022-07-09T12:09:40;24.80;64.50
22416;DHT22;12204;50.600;4.608;2022-07-09T12:14:44;24.80;63.20
22416;DHT22;12204;50.600;4.608;2022-07-09T12:19:49;24.80;62.70
22416;DHT22;12204;50.600;4.608;2022-07-09T12:24:53;24.80;62.60
22416;DHT22;12204;50.600;4.608;2022-07-09T12:29:57;24.80;63.10
22416;DHT22;12204;50.600;4.608;2022-07-09T12:35:03;24.80;63.10
22416;DHT22;12204;50.600;4.608;2022-07-09T12:40:09;24.70;63.30
22416;DHT22;12204;50.600;4.608;2022-07-09T12:45:13;24.70;63.10
22416;DHT22;12204;50.600;4.608;2022-07-09T12:50:18;24.70;63.30
22416;DHT22;12204;50.600;4.608;2022-07-09T12:55:22;24.70;63.10
22416;DHT22;12204;50.600;4.608;2022-07-09T13:00:26;24.70;63.00
22416;DHT22;12204;50.600;4.608;2022-07-09T13:05:31;24.70;62.80
22416;DHT22;12204;50.600;4.608;2022-07-09T13:10:35;24.70;62.30
22416;DHT22;12204;50.600;4.608;2022-07-09T13:15:38;24.70;61.90
22416;DHT22;12204;50.600;4.608;2022-07-09T13:20:43;24.70;62.10
22416;DHT22;12204;50.600;4.608;2022-07-09T13:25:47;24.70;61.30
22416;DHT22;12204;50.600;4.608;2022-07-09T13:30:51;24.70;61.30
22416;DHT22;12204;50.600;4.608;2022-07-09T13:35:57;24.70;61.10
22416;DHT22;12204;50.600;4.608;2022-07-09T13:41:01;24.70;61.30
22416;DHT22;12204;50.600;4.608;2022-07-09T13:46:04;24.80;61.10
22416;DHT22;12204;50.600;4.608;2022-07-09T13:51:10;24.70;60.50
22416;DHT22;12204;50.600;4.608;2022-07-09T13:56:14;24.70;60.20
22416;DHT22;12204;50.600;4.608;2022-07-09T14:01:21;24.70;60.20
22416;DHT22;12204;50.600;4.608;2022-07-09T14:06:26;24.70;60.10
22416;DHT22;12204;50.600;4.608;2022-07-09T14:11:48;24.80;59.70
22416;DHT22;12204;50.600;4.608;2022-07-09T14:16:52;24.70;58.90
22416;DHT22;12204;50.600;4.608;2022-07-09T14:21:57;24.70;59.00
22416;DHT22;12204;50.600;4.608;2022-07-09T14:27:01;24.70;59.00
22416;DHT22;12204;50.600;4.608;2022-07-09T14:32:05;24.80;58.50
22416;DHT22;12204;50.600;4.608;2022-07-09T14:37:12;24.80;58.20
22416;DHT22;12204;50.600;4.608;2022-07-09T14:42:15;24.80;58.20
22416;DHT22;12204;50.600;4.608;2022-07-09T14:47:19;24.80;58.00
22416;DHT22;12204;50.600;4.608;2022-07-09T14:52:24;24.90;58.10
22416;DHT22;12204;50.600;4.608;2022-07-09T14:57:27;24.90;57.90
22416;DHT22;12204;50.600;4.608;2022-07-09T15:02:31;24.90;57.20
22416;DHT22;12204;50.600;4.608;2022-07-09T15:07:36;24.90;57.00
22416;DHT22;12204;50.600;4.608;2022-07-09T15:12:40;24.90;56.60
22416;DHT22;12204;50.600;4.608;2022-07-09T15:17:44;24.90;56.40
22416;DHT22;12204;50.600;4.608;2022-07-09T15:22:49;24.90;56.40
22416;DHT22;12204;50.600;4.608;2022-07-09T15:27:53;25.00;55.50
22416;DHT22;12204;50.600;4.608;2022-07-09T15:32:56;25.00;55.10
22416;DHT22;12204;50.600;4.608;2022-07-09T15:38:01;25.00;55.10
22416;DHT22;12204;50.600;4.608;2022-07-09T15:43:05;25.10;54.80
22416;DHT22;12204;50.600;4.608;2022-07-09T15:48:10;25.10;54.80
22416;DHT22;12204;50.600;4.608;2022-07-09T15:53:15;25.10;54.60
22416;DHT22;12204;50.600;4.608;2022-07-09T15:58:19;25.20;54.20
22416;DHT22;12204;50.600;4.608;2022-07-09T16:03:22;25.20;53.60
22416;DHT22;12204;50.600;4.608;2022-07-09T16:08:27;25.20;53.10
22416;DHT22;12204;50.600;4.608;2022-07-09T16:13:31;25.20;52.80
22416;DHT22;12204;50.600;4.608;2022-07-09T16:18:35;25.20;52.90
22416;DHT22;12204;50.600;4.608;2022-07-09T16:23:40;25.20;52.90
22416;DHT22;12204;50.600;4.608;2022-07-09T16:28:49;25.30;52.70
22416;DHT22;12204;50.600;4.608;2022-07-09T16:33:54;25.30;52.60
22416;DHT22;12204;50.600;4.608;2022-07-09T16:38:59;25.30;53.00
22416;DHT22;12204;50.600;4.608;2022-07-09T16:44:03;25.30;52.50
22416;DHT22;12204;50.600;4.608;2022-07-09T16:49:07;25.30;52.50
22416;DHT22;12204;50.600;4.608;2022-07-09T16:54:12;25.30;52.60
22416;DHT22;12204;50.600;4.608;2022-07-09T16:59:15;25.30;53.20
22416;DHT22;12204;50.600;4.608;2022-07-09T17:04:40;25.30;52.50
22416;DHT22;12204;50.600;4.608;2022-07-09T17:09:45;25.30;52.90
22416;DHT22;12204;50.600;4.608;2022-07-09T17:14:49;25.30;52.30
22416;DHT22;12204;50.600;4.608;2022-07-09T17:19:52;25.30;52.50
22416;DHT22;12204;50.600;4.608;2022-07-09T17:24:57;25.30;52.90
22416;DHT22;12204;50.600;4.608;2022-07-09T17:30:01;25.30;52.60
22416;DHT22;12204;50.600;4.608;2022-07-09T17:35:06;25.30;53.30
22416;DHT22;12204;50.600;4.608;2022-07-09T17:40:12;25.40;52.70
22416;DHT22;12204;50.600;4.608;2022-07-09T17:45:16;25.40;52.70
22416;DHT22;12204;50.600;4.608;2022-07-09T17:50:20;25.40;53.20
22416;DHT22;12204;50.600;4.608;2022-07-09T17:55:26;25.40;53.20
22416;DHT22;12204;50.600;4.608;2022-07-09T18:00:32;25.40;53.20
22416;DHT22;12204;50.600;4.608;2022-07-09T18:05:37;25.40;53.00
22416;DHT22;12204;50.600;4.608;2022-07-09T18:10:43;25.40;52.70
22416;DHT22;12204;50.600;4.608;2022-07-09T18:15:47;25.40;52.90
22416;DHT22;12204;50.600;4.608;2022-07-09T18:20:50;25.40;53.00
22416;DHT22;12204;50.600;4.608;2022-07-09T18:25:55;25.40;53.10
22416;DHT22;12204;50.600;4.608;2022-07-09T18:30:59;25.40;53.20
22416;DHT22;12204;50.600;4.608;2022-07-09T18:36:03;25.40;53.40
22416;DHT22;12204;50.600;4.608;2022-07-09T18:41:09;25.40;53.50
22416;DHT22;12204;50.600;4.608;2022-07-09T18:46:13;25.40;53.60
22416;DHT22;12204;50.600;4.608;2022-07-09T18:51:17;25.40;53.80
22416;DHT22;12204;50.600;4.608;2022-07-09T18:56:22;25.30;54.00
22416;DHT22;12204;50.600;4.608;2022-07-09T19:01:26;25.30;54.30
22416;DHT22;12204;50.600;4.608;2022-07-09T19:06:29;25.30;54.60
22416;DHT22;12204;50.600;4.608;2022-07-09T19:11:35;25.20;54.90
22416;DHT22;12204;50.600;4.608;2022-07-09T19:16:39;25.20;55.30
22416;DHT22;12204;50.600;4.608;2022-07-09T19:21:43;25.10;55.60
22416;DHT22;12204;50.600;4.608;2022-07-09T19:26:48;25.10;55.70
22416;DHT22;12204;50.600;4.608;2022-07-09T19:31:51;25.00;55.70
22416;DHT22;12204;50.600;4.608;2022-07-09T19:37:13;25.00;55.80
22416;DHT22;12204;50.600;4.608;2022-07-09T19:42:18;24.90;55.90
22416;DHT22;12204;50.600;4.608;2022-07-09T19:47:21;25.00;56.00
22416;DHT22;12204;50.600;4.608;2022-07-09T19:52:25;24.90;56.10
22416;DHT22;12204;50.600;4.608;2022-07-09T19:57:30;25.00;56.40
22416;DHT22;12204;50.600;4.608;2022-07-09T20:02:34;25.00;56.40
22416;DHT22;12204;50.600;4.608;2022-07-09T20:07:38;24.90;56.00
22416;DHT22;12204;50.600;4.608;2022-07-09T20:12:43;24.90;56.50
22416;DHT22;12204;50.600;4.608;2022-07-09T20:17:47;25.00;56.80
22416;DHT22;12204;50.600;4.608;2022-07-09T20:22:51;25.00;56.80
22416;DHT22;12204;50.600;4.608;2022-07-09T20:27:56;25.00;56.90
22416;DHT22;12204;50.600;4.608;2022-07-09T20:32:59;25.10;57.10
22416;DHT22;12204;50.600;4.608;2022-07-09T20:38:03;25.10;57.10
22416;DHT22;12204;50.600;4.608;2022-07-09T20:43:08;25.10;57.20
22416;DHT22;12204;50.600;4.608;2022-07-09T20:48:12;25.10;57.20
22416;DHT22;12204;50.600;4.608;2022-07-09T20:53:16;25.10;57.20
22416;DHT22;12204;50.600;4.608;2022-07-09T20:58:21;25.10;57.20
22416;DHT22;12204;50.600;4.608;2022-07-09T21:03:25;25.10;57.10
22416;DHT22;12204;50.600;4.608;2022-07-09T21:08:29;25.10;57.20
22416;DHT22;12204;50.600;4.608;2022-07-09T21:13:34;25.10;57.50
22416;DHT22;12204;50.600;4.608;2022-07-09T21:18:38;25.10;57.60
22416;DHT22;12204;50.600;4.608;2022-07-09T21:23:52;25.10;57.60
22416;DHT22;12204;50.600;4.608;2022-07-09T21:28:57;25.10;57.70
22416;DHT22;12204;50.600;4.608;2022-07-09T21:34:01;25.10;57.20
22416;DHT22;12204;50.600;4.608;2022-07-09T21:39:05;25.10;56.80
22416;DHT22;12204;50.600;4.608;2022-07-09T21:44:10;25.10;56.90
22416;DHT22;12204;50.600;4.608;2022-07-09T21:49:16;25.10;56.70
22416;DHT22;12204;50.600;4.608;2022-07-09T21:54:20;25.10;56.60
22416;DHT22;12204;50.600;4.608;2022-07-09T21:59:25;25.10;56.60
22416;DHT22;12204;50.600;4.608;2022-07-09T22:04:29;25.10;56.80
22416;DHT22;12204;50.600;4.608;2022-07-09T22:09:33;25.10;56.40
22416;DHT22;12204;50.600;4.608;2022-07-09T22:14:38;25.10;56.60
22416;DHT22;12204;50.600;4.608;2022-07-09T22:19:42;25.10;56.60
22416;DHT22;12204;50.600;4.608;2022-07-09T22:24:47;25.10;56.50
22416;DHT22;12204;50.600;4.608;2022-07-09T22:29:52;25.00;56.50
22416;DHT22;12204;50.600;4.608;2022-07-09T22:34:56;25.10;56.60
22416;DHT22;12204;50.600;4.608;2022-07-09T22:40:00;25.10;56.40
22416;DHT22;12204;50.600;4.608;2022-07-09T22:45:09;25.10;56.30
22416;DHT22;12204;50.600;4.608;2022-07-09T22:50:13;25.10;56.20
22416;DHT22;12204;50.600;4.608;2022-07-09T22:55:17;25.00;56.70
22416;DHT22;12204;50.600;4.608;2022-07-09T23:00:22;25.10;56.20
22416;DHT22;12204;50.600;4.608;2022-07-09T23:05:26;25.10;56.10
22416;DHT22;12204;50.600;4.608;2022-07-09T23:10:30;25.10;55.80
22416;DHT22;12204;50.600;4.608;2022-07-09T23:15:35;25.10;56.50
22416;DHT22;12204;50.600;4.608;2022-07-09T23:20:39;25.10;56.40
22416;DHT22;12204;50.600;4.608;2022-07-09T23:25:42;25.10;56.40
22416;DHT22;12204;50.600;4.608;2022-07-09T23:30:47;25.10;56.60
22416;DHT22;12204;50.600;4.608;2022-07-09T23:35:51;25.10;56.70
22416;DHT22;12204;50.600;4.608;2022-07-09T23:40:55;25.10;56.30
22416;DHT22;12204;50.600;4.608;2022-07-09T23:46:00;25.10;56.10
22416;DHT22;12204;50.600;4.608;2022-07-09T23:51:04;25.10;56.00
22416;DHT22;12204;50.600;4.608;2022-07-09T23:56:08;25.10;56.30
